ADDS METAR Data INFO
IDs: Format: Raw Decoded Include TAF

Data at: 2010 UTC 19 Oct 2017

KORF 191951Z 06006KT 10SM CLR 22/14 A3019 RMK AO2 SLP224 T02220139
KORF 191851Z 06008KT 10SM CLR 22/14 A3021 RMK AO2 SLP228 T02170139
KORF 191751Z 04006KT 10SM CLR 21/13 A3023 RMK AO2 SLP234 T02110133 10228 20117 58023
KORF 191651Z 01005KT 10SM CLR 23/13 A3026 RMK AO2 SLP245 T02280133
KORF 191551Z VRB03KT 10SM CLR 22/13 A3028 RMK AO2 SLP254 T02220133
KORF 191451Z 00000KT 10SM CLR 21/13 A3029 RMK AO2 SLP258 T02060128 51003
KORF 191351Z 00000KT 10SM CLR 19/14 A3029 RMK AO2 SLP257 T01940139
KORF 191251Z 00000KT 10SM CLR 16/13 A3030 RMK AO2 SLP258 T01560133
KORF 191151Z 00000KT 10SM CLR 12/11 A3029 RMK AO2 SLP255 T01170111 10122 20106 50001
KORF 191051Z 00000KT 10SM CLR 11/11 A3029 RMK AO2 SLP256 T01060106
KORF 190951Z 00000KT 10SM CLR 11/11 A3029 RMK AO2 SLP255 T01110106
KORF 190851Z 00000KT 10SM CLR 11/10 A3028 RMK AO2 SLP255 T01060100 56008
KORF 190751Z 00000KT 10SM CLR 11/10 A3029 RMK AO2 SLP256 T01060100
KORF 190651Z 00000KT 10SM CLR 12/11 A3030 RMK AO2 SLP258 T01170106
KORF 190551Z 00000KT 10SM CLR 11/11 A3031 RMK AO2 SLP263 T01110106 10144 20111 56007
KORF 190451Z 00000KT 10SM CLR 12/11 A3031 RMK AO2 SLP264 T01220106 402000078
KORF 190351Z 00000KT 10SM CLR 12/11 A3032 RMK AO2 SLP266 T01220106
KORF 190251Z 00000KT 10SM CLR 12/11 A3033 RMK AO2 SLP270 T01220106 50001
KORF 190151Z 00000KT 10SM CLR 13/09 A3034 RMK AO2 SLP272 T01280094
KORF 190051Z 00000KT 10SM CLR 13/11 A3033 RMK AO2 SLP271 T01330106
KORF 182351Z 11003KT 10SM CLR 14/09 A3033 RMK AO2 SLP269 T01440094 10200 20144 53003
KORF 182251Z 10003KT 10SM CLR 16/09 A3032 RMK AO2 SLP267 T01560089
KORF 182151Z 07005KT 10SM CLR 18/08 A3032 RMK AO2 SLP266 T01780078
KORF 182051Z 06008KT 10SM CLR 18/08 A3032 RMK AO2 SLP266 T01830078 56013
KORF 181951Z 04009KT 10SM CLR 19/08 A3033 RMK AO2 SLP271 T01940078
KORF 181851Z 06009KT 10SM CLR 19/08 A3034 RMK AO2 SLP274 T01940078
KORF 181751Z 04008KT 10SM CLR 20/08 A3036 RMK AO2 SLP280 T02000083 10200 20106 58012
KORF 181651Z 04007KT 10SM CLR 19/09 A3038 RMK AO2 SLP287 T01940094
KORF 181551Z 04008KT 10SM CLR 19/10 A3040 RMK AO2 SLP292 T01890100
KORF 181451Z 03009KT 10SM CLR 18/10 A3039 RMK AO2 SLP291 T01780100 51012
KORF 181351Z 04007KT 10SM CLR 17/11 A3039 RMK AO2 SLP291 T01670106
KORF 181251Z 05007KT 10SM CLR 16/11 A3038 RMK AO2 SLP285 T01560106
KORF 181151Z 00000KT 10SM CLR 11/09 A3036 RMK AO2 SLP279 T01060089 10111 20078 51011
KORF 181051Z 00000KT 10SM CLR 09/08 A3035 RMK AO2 SLP275 T00890078
KORF 180951Z 00000KT 10SM CLR 08/07 A3034 RMK AO2 SLP273 T00830072
KORF 180851Z 00000KT 10SM CLR 08/07 A3033 RMK AO2 SLP268 T00830072 55001